Time;durP1;ratioP1;P1;durP2;ratioP2;P2;SDS_P1;SDS_P2;PMS_P1;PMS_P2;Temp;Humidity;BMP_temperature;BMP_pressure;BME280_temperature;BME280_humidity;BME280_pressure;Samples;Min_cycle;Max_cycle;Signal;HPM_P1;HPM_P2
2024/03/28 00:01:21;;;;;;;;;;;;;;;;;;4298590;33;20062;-64
2024/03/28 00:03:46;;;;;;;;;;;;;;;;;;4301122;33;20063;-65
2024/03/28 00:06:11;;;;;;;;;;;;;;;;;;4299430;33;19943;-64
2024/03/28 00:08:37;;;;;;;;;;;;;;;;;;4297948;33;19983;-65
2024/03/28 00:11:02;;;;;;;;;;;;;;;;;;4288474;33;19946;-66
2024/03/28 00:13:27;;;;;;;;;;;;;;;;;;4300663;33;19984;-64
2024/03/28 00:15:52;;;;;;;;;;;;;;;;;;4297315;33;19948;-64
2024/03/28 00:18:17;;;;;;;;;;;;;;;;;;4299511;33;19955;-64
2024/03/28 00:20:42;;;;;;;;;;;;;;;;;;4289390;33;19984;-63
2024/03/28 00:23:07;;;;;;;;;;;;;;;;;;4295081;33;19951;-63
2024/03/28 00:25:32;;;;;;;;;;;;;;;;;;4301321;33;19944;-64
2024/03/28 00:27:57;;;;;;;;;;;;;;;;;;4312529;33;19983;-64
2024/03/28 00:30:22;;;;;;;;;;;;;;;;;;4301070;33;19940;-65
2024/03/28 00:32:48;;;;;;;;;;;;;;;;;;4302599;33;19944;-64
2024/03/28 00:35:13;;;;;;;;;;;;;;;;;;4288199;33;19955;-64
2024/03/28 00:37:38;;;;;;;;;;;;;;;;;;4299835;33;19940;-64
2024/03/28 00:40:03;;;;;;;;;;;;;;;;;;4287782;33;19940;-64
2024/03/28 00:42:28;;;;;;;;;;;;;;;;;;4299712;33;19940;-64
2024/03/28 00:44:54;;;;;;;;;;;;;;;;;;4312465;33;19950;-65
2024/03/28 00:47:19;;;;;;;;;;;;;;;;;;4300368;33;19977;-65
2024/03/28 00:49:44;;;;;;;;;;;;;;;;;;4299368;33;19948;-64
2024/03/28 00:52:09;;;;;;;;;;;;;;;;;;4299134;33;19959;-64
2024/03/28 00:54:34;;;;;;;;;;;;;;;;;;4300420;33;19940;-64
2024/03/28 00:56:59;;;;;;;;;;;;;;;;;;4301525;33;19948;-64
2024/03/28 00:59:24;;;;;;;;;;;;;;;;;;4309349;33;19940;-66
2024/03/28 01:01:49;;;;;;;;;;;;;;;;;;4294283;33;20356;-65
2024/03/28 01:04:15;;;;;;;;;;;;;;;;;;4302045;33;19935;-66
2024/03/28 01:06:40;;;;;;;;;;;;;;;;;;4299730;33;20018;-64
2024/03/28 01:09:05;;;;;;;;;;;;;;;;;;4299583;33;19951;-64
2024/03/28 01:11:30;;;;;;;;;;;;;;;;;;4306302;33;20038;-65
2024/03/28 01:13:55;;;;;;;;;;;;;;;;;;4297940;33;19940;-65
2024/03/28 01:16:20;;;;;;;;;;;;;;;;;;4300127;33;19992;-65
2024/03/28 01:18:45;;;;;;;;;;;;;;;;;;4297541;33;19939;-65
2024/03/28 01:21:11;;;;;;;;;;;;;;;;;;4298142;33;19987;-64
2024/03/28 01:23:36;;;;;;;;;;;;;;;;;;4289754;33;19998;-64
2024/03/28 01:26:01;;;;;;;;;;;;;;;;;;4291897;33;19940;-65
2024/03/28 01:28:26;;;;;;;;;;;;;;;;;;4287737;33;19936;-64
2024/03/28 01:30:51;;;;;;;;;;;;;;;;;;4288803;33;20361;-64
2024/03/28 01:33:16;;;;;;;;;;;;;;;;;;4297484;33;19952;-63
2024/03/28 01:35:41;;;;;;;;;;;;;;;;;;4304637;33;20332;-64
2024/03/28 01:38:06;;;;;;;;;;;;;;;;;;4303264;33;19944;-64
2024/03/28 01:40:31;;;;;;;;;;;;;;;;;;4302411;33;19948;-64
2024/03/28 01:42:59;;;;;;;;;;;;;;;;;;4302797;33;19954;-64
2024/03/28 01:45:24;;;;;;;;;;;;;;;;;;4312167;33;19947;-65
2024/03/28 01:47:49;;;;;;;;;;;;;;;;;;4290703;33;20289;-64
2024/03/28 01:50:15;;;;;;;;;;;;;;;;;;4287711;33;19941;-64
2024/03/28 01:52:40;;;;;;;;;;;;;;;;;;4287754;33;20034;-63
2024/03/28 01:55:05;;;;;;;;;;;;;;;;;;4287543;33;19946;-64
2024/03/28 01:57:30;;;;;;;;;;;;;;;;;;4287992;33;19975;-65
2024/03/28 01:59:55;;;;;;;;;;;;;;;;;;4295447;33;19971;-64
2024/03/28 02:02:21;;;;;;;;;;;;;;;;;;4301656;33;20349;-64
2024/03/28 02:04:46;;;;;;;;;;;;;;;;;;4298009;33;19964;-64
2024/03/28 02:07:11;;;;;;;;;;;;;;;;;;4297767;33;20332;-64
2024/03/28 02:09:36;;;;;;;;;;;;;;;;;;4296857;33;20314;-66
2024/03/28 02:12:01;;;;;;;;;;;;;;;;;;4296398;33;20324;-64
2024/03/28 02:14:26;;;;;;;;;;;;;;;;;;4300902;33;19951;-64
2024/03/28 02:16:51;;;;;;;;;;;;;;;;;;4295372;33;19950;-64
2024/03/28 02:19:16;;;;;;;;;;;;;;;;;;4298754;33;19944;-64
2024/03/28 02:21:42;;;;;;;;;;;;;;;;;;4285680;33;19988;-63
2024/03/28 02:24:07;;;;;;;;;;;;;;;;;;4287399;33;19960;-64
2024/03/28 02:26:32;;;;;;;;;;;;;;;;;;4287166;33;19947;-65
2024/03/28 02:28:57;;;;;;;;;;;;;;;;;;4290929;33;19999;-65
2024/03/28 02:31:23;;;;;;;;;;;;;;;;;;4300574;33;20306;-65
2024/03/28 02:33:48;;;;;;;;;;;;;;;;;;4296835;33;19966;-64
2024/03/28 02:36:13;;;;;;;;;;;;;;;;;;4287528;33;19944;-64
2024/03/28 02:38:38;;;;;;;;;;;;;;;;;;4296137;33;19936;-64
2024/03/28 02:41:03;;;;;;;;;;;;;;;;;;4286236;33;19949;-64
2024/03/28 02:43:28;;;;;;;;;;;;;;;;;;4285680;33;19940;-65
2024/03/28 02:45:53;;;;;;;;;;;;;;;;;;4286613;33;19995;-64
2024/03/28 02:48:21;;;;;;;;;;;;;;;;;;4287718;33;19944;-64
2024/03/28 02:50:46;;;;;;;;;;;;;;;;;;4285815;33;19945;-64
2024/03/28 02:53:11;;;;;;;;;;;;;;;;;;4286767;33;19936;-64
2024/03/28 02:55:37;;;;;;;;;;;;;;;;;;4295947;33;20000;-64
2024/03/28 02:58:02;;;;;;;;;;;;;;;;;;4286672;33;19975;-64
2024/03/28 03:00:27;;;;;;;;;;;;;;;;;;4286847;33;19969;-64
2024/03/28 03:02:52;;;;;;;;;;;;;;;;;;4287150;33;19991;-64
2024/03/28 03:05:17;;;;;;;;;;;;;;;;;;4287574;33;19996;-64
2024/03/28 03:07:42;;;;;;;;;;;;;;;;;;4311088;33;19986;-64
2024/03/28 03:10:07;;;;;;;;;;;;;;;;;;4300678;33;19935;-64
2024/03/28 03:12:32;;;;;;;;;;;;;;;;;;4285905;33;19951;-65
2024/03/28 03:14:57;;;;;;;;;;;;;;;;;;4296230;33;19972;-64
2024/03/28 03:17:22;;;;;;;;;;;;;;;;;;4286839;33;19945;-64
2024/03/28 03:19:50;;;;;;;;;;;;;;;;;;4286434;33;20376;-65
2024/03/28 03:22:17;;;;;;;;;;;;;;;;;;4286233;33;19948;-64
2024/03/28 03:24:42;;;;;;;;;;;;;;;;;;4287259;33;19960;-64
2024/03/28 03:27:16;;;;;;;;;;;;;;;;;;4286333;33;20294;-65
2024/03/28 03:35:09;;;;;;;;;;;;;;;;;;4300118;33;20003;-65
2024/03/28 03:37:34;;;;;;;;;;;;;;;;;;4288567;33;19944;-64
2024/03/28 03:39:59;;;;;;;;;;;;;;;;;;4288392;33;20246;-63
2024/03/28 03:42:24;;;;;;;;;;;;;;;;;;4288540;33;19956;-65
2024/03/28 03:44:49;;;;;;;;;;;;;;;;;;4299213;33;20322;-64
2024/03/28 03:47:14;;;;;;;;;;;;;;;;;;4300769;33;19936;-64
2024/03/28 03:49:46;;;;;;;;;;;;;;;;;;4314995;33;20005;-64
2024/03/28 03:52:11;;;;;;;;;;;;;;;;;;4313245;33;19971;-64
2024/03/28 03:54:36;;;;;;;;;;;;;;;;;;4313847;33;20118;-64
2024/03/28 03:57:01;;;;;;;;;;;;;;;;;;4291934;33;19972;-65
2024/03/28 03:59:26;;;;;;;;;;;;;;;;;;4298678;33;19944;-64
2024/03/28 04:01:51;;;;;;;;;;;;;;;;;;4300319;33;19948;-63
2024/03/28 04:04:16;;;;;;;;;;;;;;;;;;4299736;33;20243;-64
2024/03/28 04:06:42;;;;;;;;;;;;;;;;;;4299775;33;20266;-64
2024/03/28 04:09:08;;;;;;;;;;;;;;;;;;4287678;33;19970;-65
2024/03/28 04:11:33;;;;;;;;;;;;;;;;;;4287512;33;20434;-65
2024/03/28 04:13:58;;;;;;;;;;;;;;;;;;4287686;33;19936;-63
2024/03/28 04:16:24;;;;;;;;;;;;;;;;;;4302022;33;19999;-64
2024/03/28 04:18:49;;;;;;;;;;;;;;;;;;4287331;33;19949;-65
2024/03/28 04:21:14;;;;;;;;;;;;;;;;;;4292014;33;19940;-64
2024/03/28 04:23:39;;;;;;;;;;;;;;;;;;4314628;33;19947;-65
2024/03/28 04:26:04;;;;;;;;;;;;;;;;;;4298142;33;19944;-64
2024/03/28 04:28:29;;;;;;;;;;;;;;;;;;4287120;33;20246;-64
2024/03/28 04:30:54;;;;;;;;;;;;;;;;;;4290910;33;20007;-64
2024/03/28 04:33:19;;;;;;;;;;;;;;;;;;4302206;33;19936;-64
2024/03/28 04:35:44;;;;;;;;;;;;;;;;;;4300908;33;20412;-65
2024/03/28 04:38:10;;;;;;;;;;;;;;;;;;4293128;33;19967;-63
2024/03/28 04:40:35;;;;;;;;;;;;;;;;;;4301561;33;19936;-64
2024/03/28 04:43:00;;;;;;;;;;;;;;;;;;4302999;33;19950;-64
2024/03/28 04:45:25;;;;;;;;;;;;;;;;;;4288844;33;19936;-65
2024/03/28 04:47:51;;;;;;;;;;;;;;;;;;4298155;33;19975;-64
2024/03/28 04:50:16;;;;;;;;;;;;;;;;;;4298358;33;19995;-64
2024/03/28 04:52:41;;;;;;;;;;;;;;;;;;4298992;33;19976;-63
2024/03/28 04:55:06;;;;;;;;;;;;;;;;;;4299010;33;19940;-65
2024/03/28 04:57:32;;;;;;;;;;;;;;;;;;4304052;33;20348;-63
2024/03/28 04:59:57;;;;;;;;;;;;;;;;;;4309116;33;19940;-63
2024/03/28 05:02:22;;;;;;;;;;;;;;;;;;4311278;33;19940;-64
2024/03/28 05:04:47;;;;;;;;;;;;;;;;;;4312922;33;19962;-65
2024/03/28 05:07:12;;;;;;;;;;;;;;;;;;4302352;33;19935;-64
2024/03/28 05:09:37;;;;;;;;;;;;;;;;;;4289948;33;20066;-65
2024/03/28 05:12:03;;;;;;;;;;;;;;;;;;4292385;33;19940;-66
2024/03/28 05:14:29;;;;;;;;;;;;;;;;;;4301843;33;20351;-64
2024/03/28 05:16:54;;;;;;;;;;;;;;;;;;4293047;33;20250;-65
2024/03/28 05:19:19;;;;;;;;;;;;;;;;;;4286546;33;20008;-65
2024/03/28 05:21:44;;;;;;;;;;;;;;;;;;4286007;33;20002;-64
2024/03/28 05:24:09;;;;;;;;;;;;;;;;;;4297538;33;19947;-65
2024/03/28 05:26:35;;;;;;;;;;;;;;;;;;4288202;33;19954;-65
2024/03/28 05:29:00;;;;;;;;;;;;;;;;;;4286514;33;19936;-64
2024/03/28 05:31:25;;;;;;;;;;;;;;;;;;4293078;33;19950;-64
2024/03/28 05:33:50;;;;;;;;;;;;;;;;;;4311931;33;19987;-63
2024/03/28 05:36:15;;;;;;;;;;;;;;;;;;4301358;33;19975;-63
2024/03/28 05:38:41;;;;;;;;;;;;;;;;;;4302268;33;19982;-65
2024/03/28 05:41:06;;;;;;;;;;;;;;;;;;4300660;33;19940;-64
2024/03/28 05:43:31;;;;;;;;;;;;;;;;;;4301364;33;19954;-64
2024/03/28 05:45:56;;;;;;;;;;;;;;;;;;4286675;33;19948;-65
2024/03/28 05:48:21;;;;;;;;;;;;;;;;;;4286828;33;19975;-64
2024/03/28 05:50:46;;;;;;;;;;;;;;;;;;4297492;33;19992;-65
2024/03/28 05:53:12;;;;;;;;;;;;;;;;;;4296783;33;19976;-64
2024/03/28 05:55:37;;;;;;;;;;;;;;;;;;4286389;33;20002;-65
2024/03/28 05:58:02;;;;;;;;;;;;;;;;;;4299174;33;19948;-64
2024/03/28 06:00:28;;;;;;;;;;;;;;;;;;4298449;33;19944;-63
2024/03/28 06:02:53;;;;;;;;;;;;;;;;;;4290286;33;19944;-65
2024/03/28 06:05:19;;;;;;;;;;;;;;;;;;4313038;33;19940;-64
2024/03/28 06:07:44;;;;;;;;;;;;;;;;;;4308355;33;19992;-65
2024/03/28 06:10:09;;;;;;;;;;;;;;;;;;4285160;33;19955;-63
2024/03/28 06:12:34;;;;;;;;;;;;;;;;;;4304141;33;19950;-64
2024/03/28 06:14:59;;;;;;;;;;;;;;;;;;4308144;33;19940;-64
2024/03/28 06:17:24;;;;;;;;;;;;;;;;;;4298470;33;20000;-63
2024/03/28 06:19:49;;;;;;;;;;;;;;;;;;4290630;33;20074;-63
2024/03/28 06:22:15;;;;;;;;;;;;;;;;;;4292873;33;19937;-64
2024/03/28 06:24:40;;;;;;;;;;;;;;;;;;4287250;33;19936;-65
2024/03/28 06:27:05;;;;;;;;;;;;;;;;;;4286640;33;19936;-64
2024/03/28 06:29:36;;;;;;;;;;;;;;;;;;4300268;33;19982;-65
2024/03/28 06:32:01;;;;;;;;;;;;;;;;;;4293955;33;20299;-64
2024/03/28 06:34:27;;;;;;;;;;;;;;;;;;4286512;33;20291;-64
2024/03/28 06:36:52;;;;;;;;;;;;;;;;;;4286548;33;19948;-64
2024/03/28 06:39:17;;;;;;;;;;;;;;;;;;4297759;33;19949;-64
2024/03/28 06:41:42;;;;;;;;;;;;;;;;;;4296174;33;19995;-65
2024/03/28 06:44:07;;;;;;;;;;;;;;;;;;4286712;33;20310;-64
2024/03/28 06:46:32;;;;;;;;;;;;;;;;;;4285749;33;20341;-63
2024/03/28 06:48:57;;;;;;;;;;;;;;;;;;4308092;33;19991;-64
2024/03/28 06:51:22;;;;;;;;;;;;;;;;;;4309867;33;19936;-64
2024/03/28 06:53:47;;;;;;;;;;;;;;;;;;4291915;33;19940;-64
2024/03/28 06:56:12;;;;;;;;;;;;;;;;;;4296578;33;19983;-65
2024/03/28 06:58:38;;;;;;;;;;;;;;;;;;4286847;33;19947;-64
2024/03/28 07:01:06;;;;;;;;;;;;;;;;;;4287690;33;19988;-63
2024/03/28 07:03:31;;;;;;;;;;;;;;;;;;4288037;33;19986;-64
2024/03/28 07:05:56;;;;;;;;;;;;;;;;;;4297949;33;19951;-65
2024/03/28 07:08:22;;;;;;;;;;;;;;;;;;4296398;33;19940;-64
2024/03/28 07:10:47;;;;;;;;;;;;;;;;;;4312332;33;19991;-65
2024/03/28 07:13:12;;;;;;;;;;;;;;;;;;4299973;33;20110;-63
2024/03/28 07:15:37;;;;;;;;;;;;;;;;;;4303463;33;19940;-66
2024/03/28 07:18:02;;;;;;;;;;;;;;;;;;4288594;33;20028;-65
2024/03/28 07:20:28;;;;;;;;;;;;;;;;;;4309187;33;20299;-64
2024/03/28 07:22:53;;;;;;;;;;;;;;;;;;4294998;33;20005;-64
2024/03/28 07:25:18;;;;;;;;;;;;;;;;;;4288309;33;20031;-64
2024/03/28 07:27:43;;;;;;;;;;;;;;;;;;4289709;33;19944;-64
2024/03/28 07:30:08;;;;;;;;;;;;;;;;;;4300836;33;19941;-65
2024/03/28 07:32:33;;;;;;;;;;;;;;;;;;4299292;33;20337;-64
2024/03/28 07:34:58;;;;;;;;;;;;;;;;;;4302823;33;19951;-64
2024/03/28 07:37:24;;;;;;;;;;;;;;;;;;4294206;33;20295;-64
2024/03/28 07:39:49;;;;;;;;;;;;;;;;;;4309797;33;20396;-64
2024/03/28 07:42:14;;;;;;;;;;;;;;;;;;4298520;33;19983;-64
2024/03/28 07:44:39;;;;;;;;;;;;;;;;;;4289639;33;19955;-64
2024/03/28 07:47:04;;;;;;;;;;;;;;;;;;4299004;33;20388;-65
2024/03/28 07:49:30;;;;;;;;;;;;;;;;;;4303002;33;19987;-65
2024/03/28 07:51:55;;;;;;;;;;;;;;;;;;4314361;33;19944;-66
2024/03/28 07:54:20;;;;;;;;;;;;;;;;;;4302748;33;19960;-66
2024/03/28 07:56:45;;;;;;;;;;;;;;;;;;4311295;33;19944;-65
2024/03/28 07:59:11;;;;;;;;;;;;;;;;;;4289165;33;20349;-68
2024/03/28 08:01:36;;;;;;;;;;;;;;;;;;4297937;33;19954;-67
2024/03/28 08:04:01;;;;;;;;;;;;;;;;;;4287504;33;19979;-68
2024/03/28 08:06:27;;;;;;;;;;;;;;;;;;4288398;33;19956;-69
2024/03/28 08:08:52;;;;;;;;;;;;;;;;;;4294652;33;20291;-68
2024/03/28 08:11:17;;;;;;;;;;;;;;;;;;4307623;33;19948;-69
2024/03/28 08:13:42;;;;;;;;;;;;;;;;;;4292669;33;19940;-69
2024/03/28 08:16:07;;;;;;;;;;;;;;;;;;4303234;33;20003;-69
2024/03/28 08:18:32;;;;;;;;;;;;;;;;;;4301371;33;19940;-69
2024/03/28 08:20:58;;;;;;;;;;;;;;;;;;4300992;33;19962;-69
2024/03/28 08:23:23;;;;;;;;;;;;;;;;;;4301959;33;20310;-69
2024/03/28 08:25:48;;;;;;;;;;;;;;;;;;4290801;33;20318;-69
2024/03/28 08:28:15;;;;;;;;;;;;;;;;;;4288455;33;19955;-69
2024/03/28 08:30:40;;;;;;;;;;;;;;;;;;4288153;33;20274;-76
2024/03/28 08:33:05;;;;;;;;;;;;;;;;;;4299351;33;19940;-77
2024/03/28 08:35:30;;;;;;;;;;;;;;;;;;4299188;33;19941;-76
2024/03/28 08:37:55;;;;;;;;;;;;;;;;;;4288136;33;19968;-74
2024/03/28 08:40:20;;;;;;;;;;;;;;;;;;4287962;33;20279;-78
2024/03/28 08:42:45;;;;;;;;;;;;;;;;;;4298920;33;19966;-76
2024/03/28 08:45:13;;;;;;;;;;;;;;;;;;4288094;33;20273;-75
2024/03/28 08:47:40;;;;;;;;;;;;;;;;;;4299699;33;19951;-75
2024/03/28 08:50:05;;;;;;;;;;;;;;;;;;4288808;33;20002;-74
2024/03/28 08:52:30;;;;;;;;;;;;;;;;;;4299816;33;19979;-75
2024/03/28 08:54:56;;;;;;;;;;;;;;;;;;4288506;33;19963;-73
2024/03/28 08:57:21;;;;;;;;;;;;;;;;;;4290585;33;20010;-74
2024/03/28 08:59:46;;;;;;;;;;;;;;;;;;4289056;33;19940;-74
2024/03/28 09:02:11;;;;;;;;;;;;;;;;;;4294698;33;20011;-76
2024/03/28 09:04:36;;;;;;;;;;;;;;;;;;4306874;33;19947;-72
2024/03/28 09:07:02;;;;;;;;;;;;;;;;;;4297594;33;19995;-75
2024/03/28 09:09:28;;;;;;;;;;;;;;;;;;4320652;33;19975;-74
2024/03/28 09:11:53;;;;;;;;;;;;;;;;;;4304030;33;19948;-74
2024/03/28 09:14:19;;;;;;;;;;;;;;;;;;4287896;33;20373;-74
2024/03/28 09:16:44;;;;;;;;;;;;;;;;;;4291370;33;19955;-75
2024/03/28 09:19:09;;;;;;;;;;;;;;;;;;4300233;33;19940;-75
2024/03/28 09:21:35;;;;;;;;;;;;;;;;;;4300529;33;19962;-75
2024/03/28 09:24:00;;;;;;;;;;;;;;;;;;4289251;33;19944;-73
2024/03/28 09:26:25;;;;;;;;;;;;;;;;;;4288274;33;19955;-74
2024/03/28 09:28:55;;;;;;;;;;;;;;;;;;4288302;33;19944;-74
2024/03/28 09:31:20;;;;;;;;;;;;;;;;;;4291514;33;20032;-76
2024/03/28 09:33:45;;;;;;;;;;;;;;;;;;4307437;33;19936;-75
2024/03/28 09:36:12;;;;;;;;;;;;;;;;;;4317070;33;19940;-76
2024/03/28 09:38:38;;;;;;;;;;;;;;;;;;4302348;33;19950;-75
2024/03/28 09:41:03;;;;;;;;;;;;;;;;;;4311169;33;20000;-73
2024/03/28 09:43:28;;;;;;;;;;;;;;;;;;4303527;33;20302;-75
2024/03/28 09:45:54;;;;;;;;;;;;;;;;;;4298920;33;19945;-75
2024/03/28 09:48:19;;;;;;;;;;;;;;;;;;4298179;33;19944;-76
2024/03/28 09:50:44;;;;;;;;;;;;;;;;;;4288755;33;19970;-75
2024/03/28 09:53:09;;;;;;;;;;;;;;;;;;4305081;33;19960;-76
2024/03/28 09:55:34;;;;;;;;;;;;;;;;;;4298199;33;19955;-75
2024/03/28 09:58:02;;;;;;;;;;;;;;;;;;4298583;33;20018;-75
2024/03/28 10:00:27;;;;;;;;;;;;;;;;;;4313411;33;19948;-78
2024/03/28 10:02:53;;;;;;;;;;;;;;;;;;4312664;33;19950;-74
2024/03/28 10:05:18;;;;;;;;;;;;;;;;;;4313842;33;19936;-78
2024/03/28 10:07:43;;;;;;;;;;;;;;;;;;4308208;33;19959;-77
2024/03/28 10:10:09;;;;;;;;;;;;;;;;;;4297316;33;19943;-77
2024/03/28 10:12:35;;;;;;;;;;;;;;;;;;4304302;33;19944;-76
2024/03/28 10:15:00;;;;;;;;;;;;;;;;;;4311866;33;19967;-76
2024/03/28 10:17:26;;;;;;;;;;;;;;;;;;4300680;33;19964;-74
2024/03/28 10:19:52;;;;;;;;;;;;;;;;;;4286427;33;19971;-76
2024/03/28 10:22:18;;;;;;;;;;;;;;;;;;4296753;33;19998;-73
2024/03/28 10:24:43;;;;;;;;;;;;;;;;;;4297940;33;19951;-73
2024/03/28 10:27:08;;;;;;;;;;;;;;;;;;4297004;33;20015;-72
2024/03/28 10:29:34;;;;;;;;;;;;;;;;;;4298449;33;19979;-72
2024/03/28 10:31:59;;;;;;;;;;;;;;;;;;4301896;33;19940;-72
2024/03/28 10:34:25;;;;;;;;;;;;;;;;;;4299899;33;19951;-72
2024/03/28 10:36:52;;;;;;;;;;;;;;;;;;4295563;33;19951;-72
2024/03/28 10:39:17;;;;;;;;;;;;;;;;;;4300591;33;19960;-74
2024/03/28 10:41:43;;;;;;;;;;;;;;;;;;4298172;33;19944;-73
2024/03/28 10:44:08;;;;;;;;;;;;;;;;;;4295693;33;19945;-73
2024/03/28 10:46:33;;;;;;;;;;;;;;;;;;4285742;33;20063;-75
2024/03/28 10:49:05;;;;;;;;;;;;;;;;;;4286417;33;19933;-75
2024/03/28 10:51:30;;;;;;;;;;;;;;;;;;4288155;33;19950;-74
2024/03/28 10:53:56;;;;;;;;;;;;;;;;;;4285864;33;19952;-75
2024/03/28 10:56:21;;;;;;;;;;;;;;;;;;4296851;33;19972;-76
2024/03/28 10:58:46;;;;;;;;;;;;;;;;;;4299721;33;20010;-76
2024/03/28 11:01:12;;;;;;;;;;;;;;;;;;4297274;33;19975;-75
2024/03/28 11:03:37;;;;;;;;;;;;;;;;;;4296926;33;19959;-74
2024/03/28 11:06:02;;;;;;;;;;;;;;;;;;4297200;33;20060;-73
2024/03/28 11:08:28;;;;;;;;;;;;;;;;;;4297538;33;19940;-72
2024/03/28 11:10:53;;;;;;;;;;;;;;;;;;4285373;33;20006;-68
2024/03/28 11:13:18;;;;;;;;;;;;;;;;;;4299147;33;19940;-67
2024/03/28 11:15:43;;;;;;;;;;;;;;;;;;4302037;33;19944;-70
2024/03/28 11:18:08;;;;;;;;;;;;;;;;;;4284377;33;20028;-67
2024/03/28 11:20:34;;;;;;;;;;;;;;;;;;4295594;33;19952;-68
2024/03/28 11:22:59;;;;;;;;;;;;;;;;;;4284720;33;19958;-67
2024/03/28 11:25:24;;;;;;;;;;;;;;;;;;4285422;33;19970;-68
2024/03/28 11:27:49;;;;;;;;;;;;;;;;;;4284938;33;20359;-67
2024/03/28 11:30:14;;;;;;;;;;;;;;;;;;4287368;33;19968;-68
2024/03/28 11:32:39;;;;;;;;;;;;;;;;;;4301423;33;19958;-68
2024/03/28 11:35:04;;;;;;;;;;;;;;;;;;4284602;33;20266;-67
2024/03/28 11:37:29;;;;;;;;;;;;;;;;;;4287264;33;19964;-68
2024/03/28 11:39:54;;;;;;;;;;;;;;;;;;4299466;33;19983;-67
2024/03/28 11:42:19;;;;;;;;;;;;;;;;;;4299015;33;19967;-67
2024/03/28 11:44:45;;;;;;;;;;;;;;;;;;4298859;33;19947;-68
2024/03/28 11:47:10;;;;;;;;;;;;;;;;;;4298586;33;19936;-66
2024/03/28 11:49:36;;;;;;;;;;;;;;;;;;4300308;33;20050;-65
2024/03/28 11:52:01;;;;;;;;;;;;;;;;;;4299128;33;19987;-65
2024/03/28 11:54:26;;;;;;;;;;;;;;;;;;4311164;33;20241;-67
2024/03/28 11:56:52;;;;;;;;;;;;;;;;;;4300060;33;19935;-67
2024/03/28 11:59:17;;;;;;;;;;;;;;;;;;4301934;33;20269;-65
2024/03/28 12:01:42;;;;;;;;;;;;;;;;;;4292556;33;19987;-64
2024/03/28 12:04:07;;;;;;;;;;;;;;;;;;4309294;33;19940;-64
2024/03/28 12:06:32;;;;;;;;;;;;;;;;;;4297241;33;19953;-64
2024/03/28 12:08:57;;;;;;;;;;;;;;;;;;4307838;33;19996;-65
2024/03/28 12:11:22;;;;;;;;;;;;;;;;;;4298214;33;19951;-64
2024/03/28 12:13:47;;;;;;;;;;;;;;;;;;4291110;33;20346;-65
2024/03/28 12:16:12;;;;;;;;;;;;;;;;;;4294433;33;19939;-65
2024/03/28 12:18:38;;;;;;;;;;;;;;;;;;4288183;33;19955;-65
2024/03/28 12:21:03;;;;;;;;;;;;;;;;;;4300216;33;20261;-64
2024/03/28 12:23:28;;;;;;;;;;;;;;;;;;4301396;33;19995;-65
2024/03/28 12:25:53;;;;;;;;;;;;;;;;;;4302327;33;20254;-63
2024/03/28 12:28:18;;;;;;;;;;;;;;;;;;4289267;33;20341;-65
2024/03/28 12:30:43;;;;;;;;;;;;;;;;;;4301381;33;20298;-64
2024/03/28 12:33:08;;;;;;;;;;;;;;;;;;4294432;33;20006;-64
2024/03/28 12:35:33;;;;;;;;;;;;;;;;;;4298873;33;19967;-64
2024/03/28 12:37:58;;;;;;;;;;;;;;;;;;4294405;33;19940;-63
2024/03/28 12:40:24;;;;;;;;;;;;;;;;;;4298306;33;20002;-64
2024/03/28 12:42:49;;;;;;;;;;;;;;;;;;4291583;33;19979;-65
2024/03/28 12:45:15;;;;;;;;;;;;;;;;;;4302445;33;20031;-64
2024/03/28 12:47:41;;;;;;;;;;;;;;;;;;4301413;33;19940;-64
2024/03/28 12:50:06;;;;;;;;;;;;;;;;;;4301515;33;19973;-65
2024/03/28 12:52:31;;;;;;;;;;;;;;;;;;4301091;33;20354;-65
2024/03/28 12:54:56;;;;;;;;;;;;;;;;;;4301363;33;20063;-65
2024/03/28 12:57:21;;;;;;;;;;;;;;;;;;4308418;33;19998;-63
2024/03/28 12:59:46;;;;;;;;;;;;;;;;;;4287035;33;20048;-64
2024/03/28 13:02:11;;;;;;;;;;;;;;;;;;4296977;33;19967;-65
2024/03/28 13:04:37;;;;;;;;;;;;;;;;;;4297434;33;19948;-66
2024/03/28 13:07:03;;;;;;;;;;;;;;;;;;4287595;33;20315;-64
2024/03/28 13:09:28;;;;;;;;;;;;;;;;;;4298159;33;19940;-66
2024/03/28 13:11:53;;;;;;;;;;;;;;;;;;4286956;33;19959;-64
2024/03/28 13:14:19;;;;;;;;;;;;;;;;;;4297515;33;20003;-65
2024/03/28 13:16:44;;;;;;;;;;;;;;;;;;4293710;33;20317;-65
2024/03/28 13:19:09;;;;;;;;;;;;;;;;;;4298966;33;19940;-66
2024/03/28 13:21:35;;;;;;;;;;;;;;;;;;4299565;33;19948;-65
2024/03/28 13:24:00;;;;;;;;;;;;;;;;;;4300725;33;20095;-65
2024/03/28 13:26:25;;;;;;;;;;;;;;;;;;4300976;33;19955;-63
2024/03/28 13:28:50;;;;;;;;;;;;;;;;;;4291029;33;19936;-65
2024/03/28 13:31:15;;;;;;;;;;;;;;;;;;4288299;33;19992;-65
2024/03/28 13:33:40;;;;;;;;;;;;;;;;;;4310890;33;20141;-66
2024/03/28 13:36:05;;;;;;;;;;;;;;;;;;4300369;33;19989;-65
2024/03/28 13:38:30;;;;;;;;;;;;;;;;;;4302586;33;19944;-65
2024/03/28 13:40:56;;;;;;;;;;;;;;;;;;4301141;33;19978;-64
2024/03/28 13:43:21;;;;;;;;;;;;;;;;;;4300905;33;20235;-65
2024/03/28 13:45:46;;;;;;;;;;;;;;;;;;4308650;33;19940;-66
2024/03/28 13:48:13;;;;;;;;;;;;;;;;;;4287033;33;19944;-65
2024/03/28 13:50:38;;;;;;;;;;;;;;;;;;4286934;33;19948;-66
2024/03/28 13:53:03;;;;;;;;;;;;;;;;;;4286278;33;19946;-65
2024/03/28 13:55:28;;;;;;;;;;;;;;;;;;4304966;33;19939;-64
2024/03/28 13:57:53;;;;;;;;;;;;;;;;;;4300368;33;19940;-65
2024/03/28 14:00:18;;;;;;;;;;;;;;;;;;4307005;33;20454;-66
2024/03/28 14:02:43;;;;;;;;;;;;;;;;;;4286597;33;19940;-64
2024/03/28 14:05:09;;;;;;;;;;;;;;;;;;4285588;33;19952;-64
2024/03/28 14:07:34;;;;;;;;;;;;;;;;;;4286814;33;19944;-65
2024/03/28 14:09:59;;;;;;;;;;;;;;;;;;4296567;33;20322;-66
2024/03/28 14:12:24;;;;;;;;;;;;;;;;;;4296403;33;19946;-64
2024/03/28 14:14:50;;;;;;;;;;;;;;;;;;4286329;33;19936;-66
2024/03/28 14:17:15;;;;;;;;;;;;;;;;;;4296650;33;20006;-65
2024/03/28 14:19:40;;;;;;;;;;;;;;;;;;4287152;33;20311;-65
2024/03/28 14:22:05;;;;;;;;;;;;;;;;;;4305919;33;19958;-64
2024/03/28 14:24:31;;;;;;;;;;;;;;;;;;4290123;33;19936;-66
2024/03/28 14:26:56;;;;;;;;;;;;;;;;;;4287320;33;20026;-64
2024/03/28 14:29:21;;;;;;;;;;;;;;;;;;4299622;33;19940;-65
2024/03/28 14:31:46;;;;;;;;;;;;;;;;;;4291392;33;19956;-64
2024/03/28 14:34:11;;;;;;;;;;;;;;;;;;4286067;33;19963;-65
2024/03/28 14:36:36;;;;;;;;;;;;;;;;;;4290089;33;19958;-65
2024/03/28 14:39:03;;;;;;;;;;;;;;;;;;4286979;33;19972;-64
2024/03/28 14:41:28;;;;;;;;;;;;;;;;;;4298931;33;20317;-64
2024/03/28 14:43:54;;;;;;;;;;;;;;;;;;4299672;33;20336;-65
2024/03/28 14:46:19;;;;;;;;;;;;;;;;;;4300272;33;19982;-65
2024/03/28 14:48:44;;;;;;;;;;;;;;;;;;4299710;33;19940;-65
2024/03/28 14:51:09;;;;;;;;;;;;;;;;;;4299960;33;19960;-64
2024/03/28 14:53:34;;;;;;;;;;;;;;;;;;4287850;33;19932;-65
2024/03/28 14:55:59;;;;;;;;;;;;;;;;;;4298058;33;20350;-66
2024/03/28 14:58:24;;;;;;;;;;;;;;;;;;4297318;33;19962;-64
2024/03/28 15:00:50;;;;;;;;;;;;;;;;;;4288401;33;19944;-65
2024/03/28 15:03:15;;;;;;;;;;;;;;;;;;4297065;33;19937;-64
2024/03/28 15:05:40;;;;;;;;;;;;;;;;;;4287180;33;20247;-64
2024/03/28 15:08:05;;;;;;;;;;;;;;;;;;4286378;33;20314;-66
2024/03/28 15:10:33;;;;;;;;;;;;;;;;;;4287126;33;19936;-63
2024/03/28 15:12:58;;;;;;;;;;;;;;;;;;4297532;33;19936;-64
2024/03/28 15:15:23;;;;;;;;;;;;;;;;;;4299813;33;20109;-64
2024/03/28 15:17:48;;;;;;;;;;;;;;;;;;4312135;33;19955;-64
2024/03/28 15:20:13;;;;;;;;;;;;;;;;;;4311283;33;19962;-65
2024/03/28 15:22:38;;;;;;;;;;;;;;;;;;4300294;33;19947;-64
2024/03/28 15:25:03;;;;;;;;;;;;;;;;;;4292325;33;19940;-64
2024/03/28 15:27:29;;;;;;;;;;;;;;;;;;4289436;33;19940;-64
2024/03/28 15:29:54;;;;;;;;;;;;;;;;;;4301096;33;19935;-65
2024/03/28 15:32:19;;;;;;;;;;;;;;;;;;4300178;33;19944;-65
2024/03/28 15:34:45;;;;;;;;;;;;;;;;;;4288761;33;19948;-63
2024/03/28 15:37:10;;;;;;;;;;;;;;;;;;4288978;33;19944;-65
2024/03/28 15:39:35;;;;;;;;;;;;;;;;;;4299757;33;19964;-65
2024/03/28 15:42:00;;;;;;;;;;;;;;;;;;4287696;33;19955;-67
2024/03/28 15:44:25;;;;;;;;;;;;;;;;;;4299935;33;19958;-64
2024/03/28 15:46:50;;;;;;;;;;;;;;;;;;4302253;33;19948;-64
2024/03/28 15:49:15;;;;;;;;;;;;;;;;;;4312744;33;19953;-64
2024/03/28 15:51:40;;;;;;;;;;;;;;;;;;4303457;33;20031;-64
2024/03/28 15:54:05;;;;;;;;;;;;;;;;;;4301812;33;20302;-63
2024/03/28 15:56:31;;;;;;;;;;;;;;;;;;4303410;33;19999;-64
2024/03/28 15:58:56;;;;;;;;;;;;;;;;;;4293504;33;19976;-64
2024/03/28 16:01:22;;;;;;;;;;;;;;;;;;4304127;33;19945;-64
2024/03/28 16:03:48;;;;;;;;;;;;;;;;;;4288857;33;19944;-65
2024/03/28 16:06:13;;;;;;;;;;;;;;;;;;4308013;33;19960;-65
2024/03/28 16:08:38;;;;;;;;;;;;;;;;;;4302987;33;19971;-66
2024/03/28 16:11:03;;;;;;;;;;;;;;;;;;4294975;33;20269;-64
2024/03/28 16:13:28;;;;;;;;;;;;;;;;;;4287171;33;19979;-65
2024/03/28 16:15:54;;;;;;;;;;;;;;;;;;4287958;33;19936;-64
2024/03/28 16:18:19;;;;;;;;;;;;;;;;;;4287335;33;20016;-65
2024/03/28 16:20:44;;;;;;;;;;;;;;;;;;4288349;33;20325;-65
2024/03/28 16:23:09;;;;;;;;;;;;;;;;;;4288844;33;19936;-63
2024/03/28 16:25:34;;;;;;;;;;;;;;;;;;4288768;33;20018;-65
2024/03/28 16:28:00;;;;;;;;;;;;;;;;;;4287037;33;19974;-64
2024/03/28 16:30:30;;;;;;;;;;;;;;;;;;4286654;33;19949;-66
2024/03/28 16:32:55;;;;;;;;;;;;;;;;;;4304888;33;19936;-65
2024/03/28 16:35:20;;;;;;;;;;;;;;;;;;4287783;33;19983;-65
2024/03/28 16:37:45;;;;;;;;;;;;;;;;;;4301661;33;19975;-64